createdAt,value
2019-01-18T00:01:13.955Z,17.50
2019-01-18T00:02:22.023Z,14.50
2019-01-18T00:03:24.988Z,19.00
2019-01-18T00:04:27.890Z,17.00
2019-01-18T00:05:30.799Z,18.00
2019-01-18T00:06:33.766Z,17.00
2019-01-18T00:07:36.896Z,17.00
2019-01-18T00:08:39.805Z,19.50
2019-01-18T00:09:42.715Z,17.00
2019-01-18T00:10:45.644Z,22.00
2019-01-18T00:11:48.998Z,15.00
2019-01-18T00:12:51.858Z,19.00
2019-01-18T00:13:55.025Z,15.50
2019-01-18T00:15:00.986Z,19.00
2019-01-18T00:16:03.940Z,18.50
2019-01-18T00:17:07.263Z,22.00
2019-01-18T00:18:10.136Z,20.00
2019-01-18T00:19:13.047Z,16.50
2019-01-18T00:20:16.402Z,22.50
2019-01-18T00:21:19.294Z,19.00
2019-01-18T00:22:22.194Z,16.00
2019-01-18T00:23:25.074Z,26.00
2019-01-18T00:24:27.922Z,20.00
2019-01-18T00:25:30.890Z,18.00
2019-01-18T00:26:34.041Z,18.00
2019-01-18T00:27:36.923Z,20.00
2019-01-18T00:28:41.765Z,16.50
2019-01-18T00:29:44.676Z,14.00
2019-01-18T00:30:47.703Z,16.50
2019-01-18T00:31:50.631Z,14.00
2019-01-18T00:32:53.771Z,17.00
2019-01-18T00:33:56.632Z,20.50
2019-01-18T00:34:59.529Z,17.00
2019-01-18T00:36:02.534Z,19.50
2019-01-18T00:37:08.448Z,16.50
2019-01-18T00:38:11.761Z,16.00
2019-01-18T00:39:14.931Z,16.50
2019-01-18T00:40:17.822Z,22.00
2019-01-18T00:41:20.758Z,18.50
2019-01-18T00:42:23.821Z,19.00
2019-01-18T00:43:30.279Z,14.50
2019-01-18T00:44:33.651Z,14.50
2019-01-18T00:45:37.308Z,15.50
2019-01-18T00:46:41.274Z,20.00
2019-01-18T00:47:44.818Z,16.00
2019-01-18T00:48:47.838Z,18.50
2019-01-18T00:49:50.702Z,14.50
2019-01-18T00:50:53.616Z,20.00
2019-01-18T00:51:57.021Z,15.00
2019-01-18T00:53:00.027Z,15.00
2019-01-18T00:54:04.470Z,12.00
2019-01-18T00:55:07.784Z,14.00
2019-01-18T00:56:10.649Z,18.50
2019-01-18T00:57:13.510Z,13.50
2019-01-18T00:58:19.227Z,17.00
2019-01-18T00:59:22.241Z,14.00
2019-01-18T01:00:25.230Z,16.50
2019-01-18T01:01:28.125Z,23.00
2019-01-18T01:02:31.007Z,14.00
2019-01-18T01:03:37.040Z,19.00
2019-01-18T01:04:40.305Z,14.00
2019-01-18T01:05:43.272Z,20.50
2019-01-18T01:06:48.424Z,14.50
2019-01-18T01:07:51.343Z,15.50
2019-01-18T01:08:54.308Z,19.50
2019-01-18T01:09:57.227Z,19.00
2019-01-18T01:11:00.496Z,14.50
2019-01-18T01:12:03.524Z,25.50
2019-01-18T01:13:06.415Z,16.50
2019-01-18T01:14:09.319Z,13.50
2019-01-18T01:15:13.246Z,16.50
2019-01-18T01:16:16.771Z,16.00
2019-01-18T01:17:20.039Z,18.00
2019-01-18T01:18:22.900Z,18.50
2019-01-18T01:19:26.216Z,21.50
2019-01-18T01:20:29.127Z,22.50
2019-01-18T01:21:32.089Z,16.00
2019-01-18T01:22:34.992Z,18.00
2019-01-18T01:23:38.160Z,19.00
2019-01-18T01:24:41.097Z,18.00
2019-01-18T01:25:44.046Z,16.50
2019-01-18T01:26:47.000Z,13.50
2019-01-18T01:27:54.849Z,17.50
2019-01-18T01:28:57.824Z,17.00
2019-01-18T01:30:15.323Z,14.00
2019-01-18T01:31:21.347Z,15.00
2019-01-18T01:32:24.860Z,17.00
2019-01-18T01:33:28.208Z,20.00
2019-01-18T01:34:32.488Z,21.00
2019-01-18T01:35:39.288Z,16.50
2019-01-18T01:36:42.194Z,16.00
2019-01-18T01:37:45.189Z,16.00
2019-01-18T01:38:48.211Z,14.50
2019-01-18T01:39:51.115Z,16.50
2019-01-18T01:40:54.026Z,19.50
2019-01-18T01:41:57.416Z,20.00
2019-01-18T01:43:00.340Z,19.50
2019-01-18T01:44:03.546Z,21.00
2019-01-18T01:45:06.467Z,18.00
2019-01-18T01:46:09.365Z,14.00
2019-01-18T01:47:12.478Z,18.50
2019-01-18T01:48:15.716Z,20.00
2019-01-18T01:49:18.799Z,22.00
2019-01-18T01:50:21.688Z,20.00
2019-01-18T01:51:24.564Z,18.00
2019-01-18T01:52:27.519Z,19.50
2019-01-18T01:53:30.576Z,14.00
2019-01-18T01:54:34.561Z,16.00
2019-01-18T01:55:38.039Z,21.50
2019-01-18T01:56:40.970Z,19.50
2019-01-18T01:57:43.944Z,16.00
2019-01-18T01:58:46.873Z,17.50
2019-01-18T01:59:50.319Z,16.00
2019-01-18T02:00:53.485Z,18.00
2019-01-18T02:01:56.475Z,19.00
2019-01-18T02:02:59.502Z,20.50
2019-01-18T02:04:02.380Z,20.00
2019-01-18T02:05:05.361Z,16.50
2019-01-18T02:06:08.521Z,17.00
2019-01-18T02:07:11.668Z,16.00
2019-01-18T02:08:14.749Z,22.00
2019-01-18T02:09:17.851Z,18.50
2019-01-18T02:10:21.155Z,19.50
2019-01-18T02:11:24.288Z,20.00
2019-01-18T02:12:27.161Z,18.00
2019-01-18T02:13:30.370Z,17.50
2019-01-18T02:14:33.244Z,17.50
2019-01-18T02:15:36.102Z,22.50
2019-01-18T02:16:39.080Z,17.00
2019-01-18T02:17:41.937Z,22.00
2019-01-18T02:18:44.844Z,26.50
2019-01-18T02:19:48.025Z,29.00
2019-01-18T02:20:50.896Z,15.50
2019-01-18T02:21:53.888Z,16.50
2019-01-18T02:22:56.867Z,19.50
2019-01-18T02:23:59.776Z,20.00
2019-01-18T02:25:03.229Z,15.50
2019-01-18T02:26:06.629Z,20.00
2019-01-18T02:27:09.512Z,22.50
2019-01-18T02:28:12.407Z,15.00
2019-01-18T02:29:15.304Z,19.50
2019-01-18T02:30:18.566Z,18.50
2019-01-18T02:31:21.556Z,14.50
2019-01-18T02:32:24.739Z,27.00
2019-01-18T02:33:27.653Z,18.00
2019-01-18T02:34:30.518Z,20.00
2019-01-18T02:35:33.505Z,18.50
2019-01-18T02:36:36.963Z,19.00
2019-01-18T02:37:40.010Z,21.00
2019-01-18T02:38:43.527Z,21.50
2019-01-18T02:39:46.436Z,19.50
2019-01-18T02:40:49.416Z,19.00
2019-01-18T02:41:52.744Z,15.50
2019-01-18T02:42:55.664Z,20.00
2019-01-18T02:43:58.626Z,20.50
2019-01-18T02:45:03.476Z,17.00
2019-01-18T02:46:06.440Z,21.50
2019-01-18T02:47:09.714Z,19.00
2019-01-18T02:48:12.600Z,18.00
2019-01-18T02:49:15.505Z,19.50
2019-01-18T02:50:18.380Z,23.50
2019-01-18T02:51:21.644Z,22.00
2019-01-18T02:52:24.558Z,23.00
2019-01-18T02:53:27.455Z,18.50
2019-01-18T02:54:30.390Z,20.50
2019-01-18T02:55:33.682Z,18.50
2019-01-18T02:56:36.744Z,21.00
2019-01-18T02:57:40.394Z,22.00
2019-01-18T02:58:43.772Z,22.50
2019-01-18T02:59:46.678Z,20.50
2019-01-18T03:00:49.586Z,20.50
2019-01-18T03:01:52.556Z,22.00
2019-01-18T03:02:56.610Z,24.00
2019-01-18T03:03:59.809Z,22.50
2019-01-18T03:05:02.921Z,23.50
2019-01-18T03:06:05.794Z,22.50
2019-01-18T03:07:08.819Z,19.50
2019-01-18T03:08:11.791Z,20.00
2019-01-18T03:09:14.691Z,20.00
2019-01-18T03:10:17.938Z,21.00
2019-01-18T03:11:20.816Z,20.00
2019-01-18T03:12:23.834Z,18.00
2019-01-18T03:13:26.786Z,21.50
2019-01-18T03:14:29.682Z,22.00
2019-01-18T03:15:32.588Z,21.00
2019-01-18T03:16:35.799Z,17.50
2019-01-18T03:17:38.699Z,19.50
2019-01-18T03:18:41.673Z,19.50
2019-01-18T03:19:44.559Z,22.00
2019-01-18T03:20:47.551Z,24.00
2019-01-18T03:21:50.945Z,19.50
2019-01-18T03:22:54.151Z,20.50
2019-01-18T03:23:57.178Z,22.00
2019-01-18T03:25:00.180Z,19.00
2019-01-18T03:26:03.235Z,21.00
2019-01-18T03:27:06.132Z,22.00
2019-01-18T03:28:09.083Z,19.00
2019-01-18T03:29:12.349Z,22.00
2019-01-18T03:30:18.750Z,25.50
2019-01-18T03:31:20.409Z,22.00
2019-01-18T03:32:23.352Z,18.50
2019-01-18T03:33:26.338Z,20.50
2019-01-18T03:34:29.653Z,18.50
2019-01-18T03:35:32.849Z,23.50
2019-01-18T03:36:35.839Z,24.50
2019-01-18T03:37:38.720Z,21.50
2019-01-18T03:38:41.708Z,21.00
2019-01-18T03:39:44.630Z,19.00
2019-01-18T03:40:47.561Z,18.50
2019-01-18T03:41:50.753Z,20.50
2019-01-18T03:42:53.665Z,23.50
2019-01-18T03:43:56.626Z,26.50
2019-01-18T03:45:00.020Z,20.00
2019-01-18T03:46:02.920Z,24.50
2019-01-18T03:47:05.829Z,18.00
2019-01-18T03:48:09.162Z,23.00
2019-01-18T03:49:12.508Z,17.50
2019-01-18T03:50:17.093Z,22.00
2019-01-18T03:51:19.982Z,22.50
2019-01-18T03:52:22.977Z,21.50
2019-01-18T03:53:26.041Z,24.00
2019-01-18T03:54:29.430Z,16.00
2019-01-18T03:55:32.657Z,26.00
2019-01-18T03:56:35.552Z,21.50
2019-01-18T03:57:38.467Z,18.50
2019-01-18T03:58:41.330Z,20.00
2019-01-18T03:59:44.248Z,23.00
2019-01-18T04:00:49.180Z,19.00
2019-01-18T04:01:52.164Z,17.50
2019-01-18T04:02:56.653Z,22.00
2019-01-18T04:03:59.688Z,19.50
2019-01-18T04:05:02.583Z,21.50
2019-01-18T04:06:05.578Z,20.50
2019-01-18T04:07:08.772Z,23.00
2019-01-18T04:08:11.697Z,24.00
2019-01-18T04:09:14.597Z,20.00
2019-01-18T04:10:17.491Z,24.00
2019-01-18T04:11:20.471Z,32.50
2019-01-18T04:12:23.391Z,21.00
2019-01-18T04:13:26.572Z,23.50
2019-01-18T04:14:29.474Z,20.00
2019-01-18T04:15:32.578Z,25.00
2019-01-18T04:16:35.688Z,25.00
2019-01-18T04:17:38.553Z,24.50
2019-01-18T04:18:41.446Z,17.50
2019-01-18T04:19:47.225Z,19.50
2019-01-18T04:20:50.322Z,20.50
2019-01-18T04:21:53.317Z,22.00
2019-01-18T04:22:56.200Z,24.50
2019-01-18T04:23:59.086Z,26.00
2019-01-18T04:25:02.028Z,27.00
2019-01-18T04:26:05.230Z,22.00
2019-01-18T04:27:08.218Z,23.00
2019-01-18T04:28:11.138Z,27.00
2019-01-18T04:29:14.058Z,24.00
2019-01-18T04:30:17.042Z,19.50
2019-01-18T04:31:19.941Z,27.00
2019-01-18T04:32:23.381Z,27.00
2019-01-18T04:33:26.306Z,26.50
2019-01-18T04:34:29.220Z,21.50
2019-01-18T04:35:32.703Z,20.00
2019-01-18T04:36:35.773Z,25.00
2019-01-18T04:37:38.864Z,19.50
2019-01-18T04:38:42.181Z,29.00
2019-01-18T04:39:45.423Z,25.50
2019-01-18T04:40:48.341Z,18.00
2019-01-18T04:41:51.243Z,23.50
2019-01-18T04:42:54.138Z,20.50
2019-01-18T04:43:57.118Z,33.00
2019-01-18T04:45:00.352Z,25.00
2019-01-18T04:46:04.528Z,24.50
2019-01-18T04:47:07.536Z,27.50
2019-01-18T04:48:10.552Z,29.50
2019-01-18T04:49:13.569Z,21.00
2019-01-18T04:50:16.462Z,22.50
2019-01-18T04:51:19.857Z,30.00
2019-01-18T04:52:22.799Z,26.00
2019-01-18T04:53:25.755Z,24.50
2019-01-18T04:54:28.756Z,26.50
2019-01-18T04:55:31.701Z,21.50
2019-01-18T04:56:36.865Z,22.00
2019-01-18T04:57:42.658Z,20.50
2019-01-18T04:58:45.576Z,24.00
2019-01-18T04:59:48.559Z,24.00
2019-01-18T05:00:51.485Z,25.50
2019-01-18T05:01:54.464Z,26.00
2019-01-18T05:03:00.167Z,22.00
2019-01-18T05:04:03.578Z,21.50
2019-01-18T05:05:06.594Z,27.50
2019-01-18T05:06:09.494Z,23.00
2019-01-18T05:07:13.374Z,25.50
2019-01-18T05:08:16.704Z,22.00
2019-01-18T05:09:19.708Z,24.50
2019-01-18T05:10:23.095Z,23.50
2019-01-18T05:11:26.447Z,23.00
2019-01-18T05:12:29.346Z,20.00
2019-01-18T05:13:32.624Z,25.50
2019-01-18T05:14:36.956Z,24.00
2019-01-18T05:15:41.262Z,20.50
2019-01-18T05:16:44.179Z,24.00
2019-01-18T05:17:47.136Z,26.50
2019-01-18T05:18:50.323Z,20.00
2019-01-18T05:19:53.210Z,18.00
2019-01-18T05:20:56.194Z,22.00
2019-01-18T05:21:59.075Z,19.50
2019-01-18T05:23:02.409Z,18.00
2019-01-18T05:24:05.417Z,17.00
2019-01-18T05:25:08.315Z,18.50
2019-01-18T05:26:11.641Z,16.00
2019-01-18T05:27:14.890Z,22.50
2019-01-18T05:28:19.630Z,17.00
2019-01-18T05:29:23.659Z,19.00
2019-01-18T05:30:26.745Z,17.50
2019-01-18T05:31:30.212Z,17.50
2019-01-18T05:32:33.439Z,21.50
2019-01-18T05:33:36.496Z,17.50
2019-01-18T05:34:39.483Z,21.00
2019-01-18T05:35:43.146Z,21.00
2019-01-18T05:36:46.104Z,21.00
2019-01-18T05:37:49.037Z,20.00
2019-01-18T05:38:54.768Z,23.50
2019-01-18T05:39:57.730Z,21.00
2019-01-18T05:41:00.649Z,21.00
2019-01-18T05:42:04.026Z,18.00
2019-01-18T05:43:08.629Z,21.50
2019-01-18T05:44:14.538Z,21.00
2019-01-18T05:45:21.213Z,14.50
2019-01-18T05:46:27.649Z,22.50
2019-01-18T05:47:34.136Z,22.00
2019-01-18T05:48:37.163Z,14.00
2019-01-18T05:49:40.151Z,19.00
2019-01-18T05:50:43.122Z,18.00
2019-01-18T05:51:46.041Z,20.50
2019-01-18T05:52:49.025Z,23.50
2019-01-18T05:53:53.808Z,23.00
2019-01-18T05:54:59.291Z,26.00
2019-01-18T05:56:02.621Z,31.00
2019-01-18T05:57:05.541Z,23.50
2019-01-18T05:58:08.612Z,24.50
2019-01-18T05:59:11.518Z,21.00
2019-01-18T06:00:15.342Z,21.50
2019-01-18T06:01:19.173Z,18.00
2019-01-18T06:02:22.103Z,26.00
2019-01-18T06:03:25.222Z,17.00
2019-01-18T06:04:28.265Z,17.50
2019-01-18T06:05:32.142Z,18.50
2019-01-18T06:06:35.054Z,20.00
2019-01-18T06:07:39.596Z,22.00
2019-01-18T06:08:42.594Z,17.00
2019-01-18T06:09:45.490Z,19.50
2019-01-18T06:10:48.585Z,19.00
2019-01-18T06:11:51.605Z,20.50
2019-01-18T06:12:54.713Z,22.50
2019-01-18T06:13:57.951Z,24.00
2019-01-18T06:15:00.972Z,25.50
2019-01-18T06:16:03.958Z,20.00
2019-01-18T06:17:09.492Z,21.00
2019-01-18T06:18:12.833Z,22.00
2019-01-18T06:19:15.811Z,20.00
2019-01-18T06:20:19.177Z,21.50
2019-01-18T06:21:22.203Z,21.50
2019-01-18T06:22:25.283Z,25.50
2019-01-18T06:23:28.356Z,27.50
2019-01-18T06:24:31.440Z,20.50
2019-01-18T06:25:34.355Z,24.50
2019-01-18T06:26:38.429Z,19.00
2019-01-18T06:27:42.447Z,26.50
2019-01-18T06:28:45.339Z,24.50
2019-01-18T06:29:48.301Z,23.00
2019-01-18T06:43:48.362Z,22.00
2019-01-18T06:44:51.430Z,20.00
2019-01-18T06:45:54.739Z,26.50
2019-01-18T06:46:59.843Z,20.00
2019-01-18T06:48:05.178Z,23.00
2019-01-18T06:49:09.302Z,27.50
2019-01-18T06:50:16.999Z,20.00
2019-01-18T06:51:20.391Z,21.50
2019-01-18T06:52:23.608Z,30.50
2019-01-18T06:53:26.815Z,22.00
2019-01-18T06:54:31.717Z,19.00
2019-01-18T06:55:35.241Z,21.00
2019-01-18T06:56:38.216Z,20.00
2019-01-18T06:57:41.286Z,26.50
2019-01-18T06:58:44.919Z,23.50
2019-01-18T06:59:47.811Z,22.50
2019-01-18T07:00:51.191Z,21.50
2019-01-18T07:01:57.196Z,26.00
2019-01-18T07:03:01.301Z,25.50
2019-01-18T07:04:04.684Z,23.00
2019-01-18T07:05:07.648Z,24.50
2019-01-18T07:06:11.031Z,27.00
2019-01-18T07:07:14.086Z,21.50
2019-01-18T07:08:17.675Z,22.50
2019-01-18T07:09:24.092Z,22.00
2019-01-18T07:10:27.152Z,33.00
2019-01-18T07:11:30.078Z,25.50
2019-01-18T07:12:32.957Z,29.00
2019-01-18T07:13:36.425Z,30.50
2019-01-18T07:14:41.244Z,33.00
2019-01-18T07:15:44.252Z,23.50
2019-01-18T07:16:47.155Z,25.00
2019-01-18T07:17:50.134Z,23.00
2019-01-18T07:18:53.095Z,25.00
2019-01-18T07:19:55.988Z,27.50
2019-01-18T07:20:59.410Z,33.50
2019-01-18T07:22:02.321Z,29.50
2019-01-18T07:23:05.245Z,25.00
2019-01-18T07:24:08.230Z,26.50
2019-01-18T07:25:11.378Z,28.50
2019-01-18T07:26:14.357Z,23.50
2019-01-18T07:27:17.551Z,21.00
2019-01-18T07:28:20.519Z,24.50
2019-01-18T07:29:24.747Z,28.50
2019-01-18T07:30:27.659Z,27.00
2019-01-18T07:31:30.696Z,26.50
2019-01-18T07:32:33.597Z,33.50
2019-01-18T07:33:43.752Z,28.00
2019-01-18T07:34:46.681Z,26.00
2019-01-18T07:35:49.643Z,21.50
2019-01-18T07:36:52.573Z,33.00
2019-01-18T07:37:55.495Z,26.50
2019-01-18T07:39:00.569Z,31.50
2019-01-18T07:40:03.622Z,27.50
2019-01-18T07:41:07.103Z,31.00
2019-01-18T07:42:13.881Z,29.00
2019-01-18T07:43:16.900Z,24.00
2019-01-18T07:44:22.585Z,26.00
2019-01-18T07:45:25.496Z,21.50
2019-01-18T07:46:33.839Z,31.00
2019-01-18T07:47:37.223Z,20.50
2019-01-18T07:48:40.298Z,28.50
2019-01-18T07:49:43.809Z,24.00
2019-01-18T07:50:46.803Z,22.00
2019-01-18T07:51:49.971Z,22.00
2019-01-18T07:52:56.425Z,24.00
2019-01-18T07:53:59.394Z,28.00
2019-01-18T07:55:08.628Z,24.00
2019-01-18T07:56:13.938Z,28.00
2019-01-18T07:57:16.926Z,25.00
2019-01-18T07:58:21.632Z,29.00
2019-01-18T07:59:29.277Z,24.00
2019-01-18T08:00:30.113Z,31.50
2019-01-18T08:01:33.105Z,28.00
2019-01-18T08:02:37.342Z,29.50
2019-01-18T08:03:41.170Z,26.00
2019-01-18T08:04:44.079Z,29.00
2019-01-18T08:05:49.363Z,24.50
2019-01-18T08:06:52.356Z,32.50
2019-01-18T08:07:55.333Z,25.00
2019-01-18T08:08:58.276Z,34.50
2019-01-18T08:10:01.213Z,24.50
2019-01-18T08:11:04.183Z,24.00
2019-01-18T08:12:07.466Z,42.50
2019-01-18T08:13:13.870Z,34.50
2019-01-18T08:14:16.858Z,33.00
2019-01-18T08:15:19.782Z,34.00
2019-01-18T08:16:25.845Z,37.50
2019-01-18T08:17:30.628Z,36.50
2019-01-18T08:18:34.432Z,22.00
2019-01-18T08:19:40.989Z,29.50
2019-01-18T08:20:45.071Z,28.00
2019-01-18T08:21:50.798Z,31.50
2019-01-18T08:22:52.965Z,26.50
2019-01-18T08:23:56.440Z,25.50
2019-01-18T08:24:59.815Z,35.00
2019-01-18T08:26:03.237Z,31.50
2019-01-18T08:27:06.191Z,26.50
2019-01-18T08:28:12.320Z,25.50
2019-01-18T08:29:26.805Z,32.00
2019-01-18T08:30:31.997Z,26.00
2019-01-18T08:31:34.606Z,36.00
2019-01-18T08:32:39.175Z,36.50
2019-01-18T08:33:42.138Z,65.00
2019-01-18T08:34:45.038Z,50.00
2019-01-18T08:35:49.563Z,43.50
2019-01-18T08:36:55.918Z,43.00
2019-01-18T08:37:58.889Z,41.50
2019-01-18T08:39:01.812Z,33.50
2019-01-18T08:40:08.598Z,31.50
2019-01-18T08:41:11.516Z,32.50
2019-01-18T08:42:16.851Z,40.50
2019-01-18T08:43:20.289Z,37.50
2019-01-18T08:44:23.730Z,35.50
2019-01-18T08:45:26.661Z,36.00
2019-01-18T08:46:29.776Z,35.50
2019-01-18T08:47:32.768Z,37.00
2019-01-18T08:48:35.684Z,39.00
2019-01-18T08:49:39.213Z,34.50
2019-01-18T08:50:43.231Z,36.50
2019-01-18T08:51:48.090Z,37.00
2019-01-18T08:52:50.837Z,42.50
2019-01-18T08:53:53.717Z,37.50
2019-01-18T08:55:03.165Z,35.50
2019-01-18T08:56:10.312Z,42.50
2019-01-18T08:57:13.458Z,40.50
2019-01-18T08:58:16.512Z,30.50
2019-01-18T08:59:19.569Z,43.00
2019-01-18T09:00:25.268Z,37.50
2019-01-18T09:01:28.568Z,43.00
2019-01-18T09:02:34.263Z,33.00
2019-01-18T09:03:37.935Z,39.50
2019-01-18T09:04:40.900Z,40.50
2019-01-18T09:05:43.890Z,39.00
2019-01-18T09:06:47.070Z,39.00
2019-01-18T09:07:52.468Z,34.50
2019-01-18T09:09:02.296Z,42.00
2019-01-18T09:10:00.582Z,39.00
2019-01-18T09:11:03.527Z,35.00
2019-01-18T09:12:07.690Z,43.50
2019-01-18T09:13:14.085Z,35.50
2019-01-18T09:14:19.560Z,37.50
2019-01-18T09:15:24.834Z,40.00
2019-01-18T09:16:28.359Z,44.00
2019-01-18T09:17:33.325Z,38.00
2019-01-18T09:18:36.698Z,39.50
2019-01-18T09:19:39.706Z,37.50
2019-01-18T09:20:43.991Z,41.00
2019-01-18T09:21:47.740Z,41.50
2019-01-18T09:22:53.222Z,36.00
2019-01-18T09:23:58.701Z,45.00
2019-01-18T09:25:05.949Z,35.50
2019-01-18T09:26:09.494Z,37.00
2019-01-18T09:27:23.127Z,34.00
2019-01-18T09:28:26.430Z,39.50
2019-01-18T09:29:29.337Z,33.50
2019-01-18T09:30:35.696Z,34.00
2019-01-18T09:31:42.415Z,39.00
2019-01-18T09:32:43.386Z,35.50
2019-01-18T09:33:46.334Z,37.50
2019-01-18T09:34:49.266Z,46.00
2019-01-18T09:35:52.798Z,38.00
2019-01-18T09:36:58.451Z,49.00
2019-01-18T09:38:01.450Z,43.00
2019-01-18T09:39:04.527Z,42.00
2019-01-18T09:40:07.736Z,48.00
2019-01-18T09:41:11.327Z,39.00
2019-01-18T09:42:14.335Z,48.50
2019-01-18T09:43:17.244Z,31.50
2019-01-18T09:44:20.225Z,38.50
2019-01-18T09:45:23.198Z,36.00
2019-01-18T09:46:29.995Z,36.50
2019-01-18T09:47:32.978Z,32.50
2019-01-18T09:48:37.075Z,35.00
2019-01-18T09:49:39.999Z,29.50
2019-01-18T09:50:42.934Z,39.00
2019-01-18T09:51:45.958Z,44.00
2019-01-18T09:52:48.849Z,40.50
2019-01-18T09:53:51.790Z,42.50
2019-01-18T09:54:54.761Z,48.50
2019-01-18T09:55:57.725Z,29.00
2019-01-18T09:57:01.097Z,38.00
2019-01-18T09:58:05.991Z,27.50
2019-01-18T09:59:11.859Z,36.50
2019-01-18T10:00:17.294Z,34.50
2019-01-18T10:01:20.251Z,32.00
2019-01-18T10:02:23.508Z,36.00
2019-01-18T10:03:27.112Z,35.50
2019-01-18T10:04:32.840Z,38.00
2019-01-18T10:05:35.746Z,30.00
2019-01-18T10:06:38.674Z,37.00
2019-01-18T10:07:42.692Z,33.00
2019-01-18T10:08:47.264Z,34.00
2019-01-18T10:09:50.638Z,36.50
2019-01-18T10:10:56.555Z,37.00
2019-01-18T10:12:00.631Z,34.00
2019-01-18T10:13:03.667Z,36.00
2019-01-18T10:14:09.886Z,32.00
2019-01-18T10:15:13.119Z,33.50
2019-01-18T10:16:25.071Z,39.00
2019-01-18T10:17:23.714Z,31.50
2019-01-18T10:18:26.740Z,29.50
2019-01-18T10:19:29.693Z,28.00
2019-01-18T10:20:32.715Z,24.50
2019-01-18T10:21:40.183Z,30.50
2019-01-18T10:22:44.694Z,29.00
2019-01-18T10:23:48.902Z,34.50
2019-01-18T10:24:51.829Z,25.00
2019-01-18T10:25:54.792Z,29.50
2019-01-18T10:26:58.612Z,32.50
2019-01-18T10:28:04.844Z,25.50
2019-01-18T10:29:08.330Z,25.00
2019-01-18T10:30:11.236Z,26.00
2019-01-18T10:31:17.169Z,23.50
2019-01-18T10:32:22.593Z,25.50
2019-01-18T10:33:27.212Z,25.00
2019-01-18T10:34:35.043Z,22.00
2019-01-18T10:35:39.089Z,30.50
2019-01-18T10:36:42.085Z,22.50
2019-01-18T10:37:46.954Z,22.50
2019-01-18T10:38:52.403Z,19.00
2019-01-18T10:39:57.379Z,20.50
2019-01-18T10:41:00.342Z,28.00
2019-01-18T10:42:12.305Z,21.00
2019-01-18T10:43:16.089Z,24.00
2019-01-18T10:44:24.427Z,23.00
2019-01-18T10:45:27.503Z,20.00
2019-01-18T10:46:32.324Z,21.50
2019-01-18T10:47:36.923Z,22.00
2019-01-18T10:48:39.907Z,24.00
2019-01-18T10:49:45.438Z,25.50
2019-01-18T10:50:48.354Z,23.50
2019-01-18T10:51:51.331Z,22.00
2019-01-18T10:52:54.242Z,24.00
2019-01-18T10:53:57.168Z,18.50
2019-01-18T10:55:03.461Z,20.00
2019-01-18T10:56:09.025Z,24.50
2019-01-18T10:57:12.018Z,24.00
2019-01-18T10:58:15.390Z,23.00
2019-01-18T10:59:23.890Z,18.50
2019-01-18T11:00:26.926Z,24.50
2019-01-18T11:01:29.848Z,23.50
2019-01-18T11:02:32.762Z,30.50
2019-01-18T11:03:37.377Z,23.00
2019-01-18T11:04:40.664Z,21.50
2019-01-18T11:05:43.713Z,25.50
2019-01-18T11:06:46.744Z,26.50
2019-01-18T11:07:52.533Z,27.00
2019-01-18T11:08:55.577Z,26.00
2019-01-18T11:10:04.831Z,26.50
2019-01-18T11:11:07.759Z,28.50
2019-01-18T11:12:10.697Z,22.00
2019-01-18T11:13:16.539Z,27.00
2019-01-18T11:14:19.618Z,28.50
2019-01-18T11:15:28.309Z,23.00
2019-01-18T11:16:31.716Z,23.50
2019-01-18T11:17:34.639Z,28.00
2019-01-18T11:18:37.664Z,24.50
2019-01-18T11:19:40.630Z,24.50
2019-01-18T11:20:43.542Z,20.00
2019-01-18T11:21:46.586Z,20.00
2019-01-18T11:22:52.859Z,31.50
2019-01-18T11:23:55.896Z,21.50
2019-01-18T11:24:58.964Z,24.50
2019-01-18T11:26:01.870Z,22.00
2019-01-18T11:27:05.053Z,24.00
2019-01-18T11:28:08.973Z,25.50
2019-01-18T11:29:20.072Z,22.50
2019-01-18T11:42:54.532Z,25.50
2019-01-18T11:43:57.647Z,18.50
2019-01-18T11:45:07.713Z,26.00
2019-01-18T11:46:10.616Z,22.75
2019-01-18T11:47:16.473Z,21.00
2019-01-18T11:48:22.795Z,22.00
2019-01-18T11:49:26.159Z,26.25
2019-01-18T11:50:29.223Z,30.75
2019-01-18T11:51:35.031Z,32.75
2019-01-18T11:52:40.889Z,29.00
2019-01-18T11:53:43.913Z,20.00
2019-01-18T11:54:50.053Z,25.00
2019-01-18T11:55:56.231Z,23.50
2019-01-18T11:56:59.257Z,25.50
2019-01-18T11:58:04.852Z,26.00
2019-01-18T11:59:10.433Z,23.50
2019-01-18T12:00:14.012Z,24.00
2019-01-18T12:01:17.423Z,25.00
2019-01-18T12:02:22.227Z,22.00
2019-01-18T12:03:25.363Z,23.50
2019-01-18T12:04:28.402Z,24.50
2019-01-18T12:05:31.297Z,22.75
2019-01-18T12:06:35.271Z,24.25
2019-01-18T12:07:38.621Z,28.75
2019-01-18T12:08:42.029Z,22.50
2019-01-18T12:09:45.932Z,27.25
2019-01-18T12:10:48.975Z,28.75
2019-01-18T12:11:54.426Z,30.50
2019-01-18T12:12:56.737Z,21.00
2019-01-18T12:14:00.001Z,31.00
2019-01-18T12:15:04.043Z,26.00
2019-01-18T12:16:08.795Z,26.00
2019-01-18T12:17:14.208Z,26.00
2019-01-18T12:18:17.143Z,36.50
2019-01-18T12:19:20.079Z,31.75
2019-01-18T12:20:23.629Z,29.75
2019-01-18T12:21:26.701Z,33.75
2019-01-18T12:22:29.724Z,31.25
2019-01-18T12:23:32.822Z,26.25
2019-01-18T12:24:35.845Z,32.50
2019-01-18T12:25:38.764Z,25.00
2019-01-18T12:26:41.676Z,28.75
2019-01-18T12:27:45.054Z,29.75
2019-01-18T12:28:48.057Z,25.00
2019-01-18T12:29:54.258Z,21.50
2019-01-18T12:31:02.858Z,23.25
2019-01-18T12:32:07.468Z,20.00
2019-01-18T12:33:10.551Z,25.75
2019-01-18T12:34:13.436Z,26.00
2019-01-18T12:35:16.347Z,28.00
2019-01-18T12:36:19.352Z,25.25
2019-01-18T12:37:25.167Z,20.00
2019-01-18T12:38:31.277Z,28.75
2019-01-18T12:39:34.763Z,23.50
2019-01-18T12:40:37.818Z,28.25
2019-01-18T12:41:41.687Z,31.25
2019-01-18T12:42:47.082Z,33.25
2019-01-18T12:43:51.778Z,26.00
2019-01-18T12:44:54.711Z,29.75
2019-01-18T12:46:00.196Z,32.25
2019-01-18T12:47:03.442Z,27.75
2019-01-18T12:48:06.465Z,33.00
2019-01-18T12:49:09.802Z,20.25
2019-01-18T12:50:12.921Z,31.25
2019-01-18T12:51:17.315Z,22.25
2019-01-18T12:52:20.297Z,27.50
2019-01-18T12:53:23.227Z,21.00
2019-01-18T12:54:26.451Z,21.25
2019-01-18T12:55:29.735Z,21.00
2019-01-18T12:56:33.209Z,27.00
2019-01-18T12:57:38.365Z,21.25
2019-01-18T12:58:41.283Z,18.50
2019-01-18T12:59:45.029Z,21.75
2019-01-18T13:00:49.008Z,22.00
2019-01-18T13:01:53.409Z,21.25
2019-01-18T13:02:58.665Z,23.75
2019-01-18T13:04:18.814Z,24.25
2019-01-18T13:05:23.237Z,28.50
2019-01-18T13:06:27.803Z,24.00
2019-01-18T13:07:30.801Z,20.75
2019-01-18T13:08:36.211Z,25.25
2019-01-18T13:09:41.618Z,28.75
2019-01-18T13:10:58.223Z,22.75
2019-01-18T13:12:01.310Z,22.00
2019-01-18T13:13:06.721Z,24.75
2019-01-18T13:14:09.667Z,28.25
2019-01-18T13:15:12.745Z,29.50
2019-01-18T13:16:15.865Z,30.00
2019-01-18T13:17:18.844Z,23.50
2019-01-18T13:18:22.027Z,32.75
2019-01-18T13:19:25.380Z,26.50
2019-01-18T13:20:30.154Z,25.00
2019-01-18T13:21:35.424Z,24.00
2019-01-18T13:22:38.766Z,31.75
2019-01-18T13:23:41.684Z,20.50
2019-01-18T13:24:44.962Z,21.00
2019-01-18T13:27:11.807Z,25.75
2019-01-18T13:28:17.165Z,21.75
2019-01-18T13:29:22.292Z,21.50
2019-01-18T13:30:27.392Z,23.00
2019-01-18T13:31:30.373Z,18.50
2019-01-18T13:32:33.700Z,22.00
2019-01-18T13:33:39.411Z,23.00
2019-01-18T13:34:42.441Z,23.50
2019-01-18T13:35:45.517Z,21.00
2019-01-18T13:36:48.884Z,19.25
2019-01-18T13:37:51.805Z,24.00
2019-01-18T13:38:56.593Z,27.00
2019-01-18T13:39:59.600Z,20.00
2019-01-18T13:41:05.916Z,26.00
2019-01-18T13:42:12.695Z,28.50
2019-01-18T13:43:15.854Z,34.75
2019-01-18T13:44:22.153Z,30.00
2019-01-18T13:45:25.629Z,32.75
2019-01-18T13:46:31.685Z,28.75
2019-01-18T13:47:34.676Z,30.25
2019-01-18T13:48:37.955Z,24.25
2019-01-18T13:49:40.968Z,27.25
2019-01-18T13:50:44.099Z,25.50
2019-01-18T13:51:47.816Z,30.75
2019-01-18T13:52:52.078Z,29.00
2019-01-18T13:53:57.915Z,26.50
2019-01-18T13:55:00.980Z,30.50
2019-01-18T13:56:04.270Z,26.00
2019-01-18T13:57:12.224Z,31.75
2019-01-18T13:58:14.065Z,27.25
2019-01-18T13:59:17.447Z,30.25
2019-01-18T14:00:23.443Z,25.75
2019-01-18T14:01:29.850Z,30.75
2019-01-18T14:02:35.564Z,25.25
2019-01-18T14:03:45.348Z,28.75
2019-01-18T14:04:48.382Z,28.00
2019-01-18T14:05:51.628Z,33.75
2019-01-18T14:06:54.534Z,41.50
2019-01-18T14:07:59.927Z,30.25
2019-01-18T14:09:02.947Z,29.75